Time;durP1;ratioP1;P1;durP2;ratioP2;P2;SDS_P1;SDS_P2;PMS_P1;PMS_P2;Temp;Humidity;BMP_temperature;BMP_pressure;BME280_temperature;BME280_humidity;BME280_pressure;Samples;Min_cycle;Max_cycle;Signal;HPM_P1;HPM_P2
2023/11/19 00:00:29;;;;;;;73.13;12.25;;;15.00;99.90;;;15.25;100.00;100650.06;5072391;28;20064;-70
2023/11/19 00:02:57;;;;;;;55.45;11.15;;;15.00;99.90;;;15.21;100.00;100651.06;5072603;28;20048;-72
2023/11/19 00:05:26;;;;;;;56.78;10.98;;;15.00;99.90;;;15.21;100.00;100655.56;5072313;28;20384;-67
2023/11/19 00:07:55;;;;;;;58.38;11.52;;;14.90;99.90;;;15.21;100.00;100656.41;5072326;28;20429;-68
2023/11/19 00:10:25;;;;;;;54.58;10.65;;;14.90;99.90;;;15.07;100.00;100658.56;5072427;28;20056;-75
2023/11/19 00:12:53;;;;;;;60.03;11.07;;;14.90;99.90;;;15.15;100.00;100667.25;5072411;28;20127;-76
2023/11/19 00:15:24;;;;;;;51.47;10.90;;;14.90;99.90;;;15.19;100.00;100678.69;5072525;28;20079;-76
2023/11/19 00:17:52;;;;;;;53.90;11.20;;;14.90;99.90;;;15.10;100.00;100669.13;5070975;28;20098;-76
2023/11/19 00:20:22;;;;;;;63.20;12.48;;;14.90;99.90;;;15.09;100.00;100667.41;5073535;28;20048;-76
2023/11/19 00:22:51;;;;;;;58.92;11.30;;;14.90;99.90;;;14.87;100.00;100628.91;5076224;28;20045;-76
2023/11/19 00:25:22;;;;;;;55.87;12.37;;;14.90;99.90;;;15.18;100.00;100655.63;5076183;28;20542;-76
2023/11/19 00:27:53;;;;;;;71.90;11.57;;;14.90;99.90;;;15.20;100.00;100653.78;5076268;28;20110;-76
2023/11/19 00:30:22;;;;;;;61.65;11.30;;;14.90;99.90;;;15.13;100.00;100660.19;5076483;28;20101;-76
2023/11/19 00:32:50;;;;;;;74.43;12.45;;;14.90;99.90;;;15.03;100.00;100659.56;5076342;28;20044;-76
2023/11/19 00:35:19;;;;;;;62.28;12.02;;;14.80;99.90;;;15.09;100.00;100662.06;5076309;28;20033;-76
2023/11/19 00:37:48;;;;;;;63.97;12.50;;;14.80;99.90;;;14.98;100.00;100647.28;5074864;28;20052;-75
2023/11/19 00:40:18;;;;;;;62.88;13.32;;;14.80;99.90;;;15.11;100.00;100664.69;5074839;28;20045;-76
2023/11/19 00:42:47;;;;;;;71.10;12.43;;;14.80;99.90;;;15.12;100.00;100661.09;5076121;28;20044;-76
2023/11/19 00:45:17;;;;;;;61.55;11.52;;;14.80;99.90;;;15.11;100.00;100646.03;5091652;28;20032;-76
2023/11/19 00:47:46;;;;;;;73.50;13.35;;;14.80;99.90;;;15.14;100.00;100649.50;5076019;28;20491;-76
2023/11/19 00:50:14;;;;;;;59.90;11.75;;;14.80;99.90;;;15.22;100.00;100646.63;5076023;28;20051;-76
2023/11/19 00:52:43;;;;;;;61.60;11.65;;;14.90;99.90;;;15.07;100.00;100615.94;5075682;28;20724;-76
2023/11/19 00:55:11;;;;;;;70.00;13.45;;;14.80;99.90;;;15.12;100.00;100630.00;5075897;28;20094;-76
2023/11/19 00:57:41;;;;;;;71.97;13.05;;;14.80;99.90;;;15.11;100.00;100628.28;5075870;28;20036;-76
2023/11/19 01:00:18;;;;;;;66.95;11.63;;;14.80;99.90;;;15.00;100.00;100633.00;5075794;28;20044;-76
2023/11/19 01:02:50;;;;;;;63.75;12.05;;;14.70;99.90;;;14.96;100.00;100643.78;5075633;28;20380;-76
2023/11/19 01:05:22;;;;;;;65.38;12.20;;;14.70;99.90;;;14.82;100.00;100590.00;5075777;28;20045;-76
2023/11/19 01:07:53;;;;;;;71.53;13.13;;;14.70;99.90;;;14.97;100.00;100608.22;5074152;28;20047;-76
2023/11/19 01:10:23;;;;;;;72.82;14.20;;;14.70;99.90;;;14.94;100.00;100609.19;5075350;28;20437;-76
2023/11/19 01:12:51;;;;;;;74.97;12.60;;;14.60;99.90;;;14.94;100.00;100617.16;5091236;28;20098;-76
2023/11/19 01:15:19;;;;;;;70.75;13.23;;;14.70;99.90;;;14.93;100.00;100610.09;5091000;28;20076;-76
2023/11/19 01:17:49;;;;;;;71.07;13.52;;;14.70;99.90;;;14.97;100.00;100624.22;5075219;28;20093;-75
2023/11/19 01:20:21;;;;;;;69.53;13.07;;;14.70;99.90;;;14.94;100.00;100603.84;5074236;28;20545;-76
2023/11/19 01:22:50;;;;;;;67.18;12.77;;;14.70;99.90;;;14.91;100.00;100603.06;5075343;28;20082;-75
2023/11/19 01:25:19;;;;;;;65.60;12.95;;;14.70;99.90;;;14.77;100.00;100610.56;5075415;28;20063;-75
2023/11/19 01:27:48;;;;;;;70.00;12.82;;;14.60;99.90;;;14.75;100.00;100604.41;5075352;28;20072;-76
2023/11/19 01:30:16;;;;;;;81.57;12.27;;;14.50;99.90;;;14.66;100.00;100602.84;5073478;28;20048;-75
2023/11/19 01:32:44;;;;;;;78.40;13.55;;;14.40;99.90;;;14.61;100.00;100610.06;5073888;28;20414;-76
2023/11/19 01:35:14;;;;;;;69.40;13.85;;;14.40;99.90;;;14.66;100.00;100628.56;5090742;28;20057;-76
2023/11/19 01:37:43;;;;;;;65.45;13.35;;;14.40;99.90;;;14.55;100.00;100604.91;5075174;28;20044;-75
2023/11/19 01:40:13;;;;;;;69.80;13.63;;;14.30;99.90;;;14.63;100.00;100613.56;5074853;28;20399;-76
2023/11/19 01:42:42;;;;;;;72.68;13.45;;;14.30;99.90;;;14.52;100.00;100586.31;5074621;28;20045;-75
2023/11/19 01:45:24;;;;;;;64.40;13.77;;;14.30;99.90;;;14.55;100.00;100610.22;5074978;28;20041;-75
2023/11/19 01:47:52;;;;;;;66.28;13.38;;;14.30;99.90;;;14.42;100.00;100587.47;5075032;28;20395;-75
2023/11/19 01:50:24;;;;;;;78.65;13.00;;;14.30;99.90;;;14.57;100.00;100600.41;5073581;28;20781;-75
2023/11/19 01:52:54;;;;;;;64.75;13.27;;;14.30;99.90;;;14.61;100.00;100614.50;5073625;28;20404;-75
2023/11/19 01:55:23;;;;;;;61.05;12.80;;;14.30;99.90;;;14.62;100.00;100618.91;5074732;28;20466;-75
2023/11/19 01:57:53;;;;;;;65.85;13.07;;;14.30;99.90;;;14.58;100.00;100631.41;5074799;28;20041;-75
2023/11/19 02:00:22;;;;;;;72.53;12.90;;;14.30;99.90;;;14.59;100.00;100630.53;5073418;28;20055;-75
2023/11/19 02:02:52;;;;;;;77.07;14.20;;;14.30;99.90;;;14.56;100.00;100633.25;5090187;28;20041;-75
2023/11/19 02:05:23;;;;;;;67.57;13.90;;;14.30;99.90;;;14.48;100.00;100639.69;5073328;28;20144;-76
2023/11/19 02:07:51;;;;;;;68.63;13.68;;;14.20;99.90;;;14.53;100.00;100643.97;5074657;28;20040;-75
2023/11/19 02:10:19;;;;;;;70.95;13.68;;;14.30;99.90;;;14.48;100.00;100652.06;5089777;28;20487;-75
2023/11/19 02:12:48;;;;;;;80.88;14.57;;;14.20;99.90;;;14.41;100.00;100644.25;5074483;28;20123;-76
2023/11/19 02:15:18;;;;;;;74.75;14.20;;;14.20;99.90;;;14.50;100.00;100638.72;5074416;28;20045;-75
2023/11/19 02:17:47;;;;;;;73.15;13.52;;;14.20;99.90;;;14.50;100.00;100628.06;5074170;28;20040;-75
2023/11/19 02:20:15;;;;;;;74.57;13.23;;;14.20;99.90;;;14.45;100.00;100617.56;5089843;28;20044;-75
2023/11/19 02:22:46;;;;;;;76.57;14.25;;;14.20;99.90;;;14.42;100.00;100640.69;5072931;28;20056;-75
2023/11/19 02:25:22;;;;;;;63.88;12.75;;;14.20;99.90;;;14.48;100.00;100636.09;5089836;28;20419;-75
2023/11/19 02:27:56;;;;;;;64.85;14.13;;;14.20;99.90;;;14.48;100.00;100633.44;5074153;28;20469;-75
2023/11/19 02:30:26;;;;;;;74.32;13.63;;;14.20;99.90;;;13.62;100.00;100506.91;5089724;28;20168;-75
2023/11/19 02:32:57;;;;;;;72.50;13.93;;;14.10;99.90;;;14.33;100.00;100636.47;5074394;28;20045;-75
2023/11/19 02:35:25;;;;;;;;;;;14.10;99.90;;;14.30;100.00;100633.00;5090052;28;20059;-75
2023/11/19 02:37:55;;;;;;;70.43;14.27;;;14.00;99.90;;;14.33;100.00;100623.16;5089514;28;20353;-75
2023/11/19 02:40:25;;;;;;;75.75;14.88;;;14.10;99.90;;;14.31;100.00;100627.66;5072370;28;20071;-75
2023/11/19 02:42:55;;;;;;;68.20;13.38;;;14.00;99.90;;;14.30;100.00;100633.00;5072993;28;20486;-76
2023/11/19 02:45:26;;;;;;;77.68;14.25;;;14.00;99.90;;;14.30;100.00;100625.03;5072482;28;20048;-75
2023/11/19 02:47:54;;;;;;;69.65;13.15;;;14.00;99.90;;;14.21;100.00;100612.78;5089359;28;20048;-75
2023/11/19 02:50:25;;;;;;;67.90;13.35;;;14.00;99.90;;;14.17;100.00;100607.53;5073718;28;20068;-75
2023/11/19 02:52:57;;;;;;;;;;;13.90;99.90;;;14.20;100.00;100621.69;5074046;28;20044;-76
2023/11/19 02:55:27;;;;;;;73.30;15.65;;;14.00;99.90;;;13.58;100.00;100526.50;5073366;28;19947;-76
2023/11/19 02:57:59;;;;;;;78.93;15.38;;;13.90;99.90;;;14.23;100.00;100631.34;5073618;28;20493;-76
2023/11/19 03:00:35;;;;;;;70.85;14.63;;;13.90;99.90;;;14.21;100.00;100625.19;5073571;28;20498;-76
2023/11/19 03:03:17;;;;;;;74.00;15.13;;;13.90;99.90;;;14.10;100.00;100616.59;5089046;28;20415;-76
2023/11/19 03:05:47;;;;;;;74.00;14.75;;;13.90;99.90;;;14.14;100.00;100611.16;5072125;28;20408;-76
2023/11/19 03:08:17;;;;;;;72.68;15.20;;;13.90;99.90;;;14.10;100.00;100604.16;5073404;28;20044;-76
2023/11/19 03:10:48;;;;;;;77.60;14.18;;;13.80;99.90;;;14.00;100.00;100607.06;5071635;28;20060;-76
2023/11/19 03:13:18;;;;;;;88.75;15.50;;;13.80;99.90;;;14.01;100.00;100600.84;5088843;28;20453;-76
2023/11/19 03:15:47;;;;;;;76.00;14.70;;;13.80;99.90;;;14.02;100.00;100607.91;5088842;28;20098;-76
2023/11/19 03:18:16;;;;;;;80.70;14.52;;;13.80;99.90;;;14.05;100.00;100592.75;5073263;28;20066;-76
2023/11/19 03:20:44;;;;;;;80.53;15.13;;;13.80;99.90;;;14.05;100.00;100590.09;5073180;28;20048;-76
2023/11/19 03:23:12;;;;;;;86.20;14.77;;;13.80;99.90;;;13.95;100.00;100574.41;5073154;28;20403;-76
2023/11/19 03:25:41;;;;;;;77.55;14.23;;;13.80;99.90;;;13.98;100.00;100592.91;5088684;28;20113;-76
2023/11/19 03:28:10;;;;;;;73.68;13.02;;;13.80;99.90;;;13.98;100.00;100601.78;5073081;28;20098;-76
2023/11/19 03:30:40;;;;;;;75.45;14.45;;;13.70;99.90;;;14.01;100.00;100600.84;5071848;28;20053;-76
2023/11/19 03:33:09;;;;;;;76.28;14.70;;;13.70;99.90;;;13.44;100.00;100510.84;5072755;28;20399;-76
2023/11/19 03:35:40;;;;;;;77.35;14.70;;;13.70;99.90;;;13.91;100.00;100602.84;5072965;28;20047;-76
2023/11/19 03:38:09;;;;;;;87.65;14.73;;;13.60;99.90;;;13.90;100.00;100605.53;5071738;28;20044;-76
2023/11/19 03:40:38;;;;;;;84.97;14.75;;;13.60;99.90;;;13.97;100.00;100593.84;5072924;28;20045;-76
2023/11/19 03:43:07;;;;;;;77.55;14.75;;;13.70;99.90;;;14.03;100.00;100593.72;5071620;28;20083;-76
2023/11/19 03:45:36;;;;;;;83.15;13.43;;;13.70;99.90;;;13.83;100.00;100582.63;5088403;28;20411;-76
2023/11/19 03:48:06;;;;;;;73.55;13.35;;;13.70;99.90;;;13.93;100.00;100594.81;5088116;28;20190;-76
2023/11/19 03:50:34;;;;;;;82.57;15.98;;;13.60;99.90;;;13.81;100.00;100582.69;5088316;28;20048;-76
2023/11/19 03:53:04;;;;;;;74.72;14.02;;;13.60;99.90;;;13.79;100.00;100584.50;5087909;28;20051;-76
2023/11/19 03:55:32;;;;;;;85.05;14.05;;;13.60;99.90;;;13.73;100.00;100589.94;5072476;28;20063;-76
2023/11/19 03:58:01;;;;;;;74.95;13.25;;;13.50;99.90;;;13.73;100.00;100605.00;5072509;28;20041;-76
2023/11/19 04:00:29;;;;;;;82.78;14.60;;;13.50;99.90;;;13.76;100.00;100610.28;5088215;28;20052;-76
2023/11/19 04:02:58;;;;;;;80.07;14.45;;;13.50;99.90;;;13.65;100.00;100596.31;5072669;28;20098;-76
2023/11/19 04:05:28;;;;;;;72.82;14.63;;;13.60;99.90;;;13.74;100.00;100617.41;5072619;28;20128;-76
2023/11/19 04:07:56;;;;;;;84.38;14.80;;;13.50;99.90;;;13.73;100.00;100628.94;5088203;28;20110;-76
2023/11/19 04:10:24;;;;;;;71.80;14.18;;;13.50;99.90;;;13.76;100.00;100620.91;5072033;28;20550;-76
2023/11/19 04:12:53;;;;;;;74.95;12.73;;;13.50;99.90;;;13.74;100.00;100626.25;5072572;28;20045;-76
2023/11/19 04:15:22;;;;;;;80.35;14.38;;;13.50;99.90;;;13.78;100.00;100616.44;5072612;28;20036;-76
2023/11/19 04:17:50;;;;;;;71.50;14.38;;;13.50;99.90;;;13.77;100.00;100633.28;5072255;28;20106;-76
2023/11/19 04:20:19;;;;;;;66.97;13.15;;;13.50;99.90;;;13.72;100.00;100625.41;5071277;28;20045;-76
2023/11/19 04:22:51;;;;;;;73.60;13.50;;;13.60;99.90;;;13.83;100.00;100614.53;5072498;28;20098;-76
2023/11/19 04:25:20;;;;;;;79.32;13.52;;;13.60;99.90;;;13.78;100.00;100624.41;5071191;28;20056;-76
2023/11/19 04:27:51;;;;;;;71.35;12.55;;;13.50;99.90;;;13.87;100.00;100630.41;5088071;28;20131;-76
2023/11/19 04:30:19;;;;;;;83.03;13.98;;;13.60;99.90;;;13.65;100.00;100607.84;5072465;28;20124;-76
2023/11/19 04:32:48;;;;;;;66.70;13.65;;;13.60;99.90;;;13.89;100.00;100627.72;5071064;28;20049;-76
2023/11/19 04:35:18;;;;;;;72.13;13.75;;;13.70;99.90;;;13.88;100.00;100628.63;5072407;28;20106;-76
2023/11/19 04:37:48;;;;;;;74.43;13.20;;;13.70;99.90;;;13.83;100.00;100630.50;5072369;28;20509;-76
2023/11/19 04:40:18;;;;;;;63.22;12.02;;;13.60;99.90;;;13.80;100.00;100626.09;5072369;28;20048;-76
2023/11/19 04:42:46;;;;;;;70.85;14.20;;;13.60;99.90;;;13.91;100.00;100641.84;5072055;28;20048;-75
2023/11/19 04:45:16;;;;;;;62.33;11.93;;;13.60;99.90;;;13.87;100.00;100641.03;5070923;28;20076;-76
2023/11/19 04:47:44;;;;;;;67.90;13.73;;;13.60;99.90;;;13.83;100.00;100641.13;5072041;28;20040;-76
2023/11/19 04:50:13;;;;;;;64.97;12.88;;;13.60;99.90;;;13.95;100.00;100646.19;5071990;28;20102;-76
2023/11/19 04:52:42;;;;;;;74.15;14.55;;;13.60;99.90;;;13.95;100.00;100638.22;5071949;28;20045;-76
2023/11/19 04:55:14;;;;;;;80.32;14.10;;;13.60;99.90;;;13.84;100.00;100618.97;5071957;28;20515;-76
2023/11/19 04:57:42;;;;;;;77.93;14.43;;;13.60;99.90;;;13.87;100.00;100637.50;5072228;28;20051;-76
2023/11/19 05:00:13;;;;;;;74.07;14.38;;;13.60;99.90;;;13.93;100.00;100632.06;5071859;28;20048;-76
2023/11/19 05:02:45;;;;;;;71.30;13.68;;;13.70;99.90;;;13.87;100.00;100640.16;5087730;28;20059;-77
2023/11/19 05:05:14;;;;;;;84.07;14.38;;;13.60;99.90;;;13.79;100.00;100632.34;5071929;28;20439;-76
2023/11/19 05:07:42;;;;;;;74.60;13.80;;;13.50;99.90;;;13.79;100.00;100631.47;5075467;28;20068;-76
2023/11/19 05:10:12;;;;;;;75.90;14.35;;;13.50;99.90;;;13.53;100.00;100593.03;5075199;28;20575;-76
2023/11/19 05:12:41;;;;;;;74.78;12.88;;;13.60;99.90;;;13.80;100.00;100636.75;5074394;28;20048;-76
2023/11/19 05:15:11;;;;;;;69.75;12.95;;;13.50;99.90;;;13.72;100.00;100614.78;5074510;28;20139;-76
2023/11/19 05:17:40;;;;;;;72.43;14.20;;;13.50;99.90;;;13.67;100.00;100624.63;5075877;28;20044;-77
2023/11/19 05:20:13;;;;;;;74.60;14.88;;;13.50;99.90;;;13.76;100.00;100637.75;5091037;28;20451;-76
2023/11/19 05:22:42;;;;;;;80.63;14.90;;;13.50;99.90;;;13.76;100.00;100644.84;5075296;28;20075;-76
2023/11/19 05:25:12;;;;;;;64.63;12.93;;;13.50;99.90;;;13.70;100.00;100639.63;5075021;28;20065;-76
2023/11/19 05:27:41;;;;;;;77.40;14.32;;;13.50;99.90;;;13.68;100.00;100649.44;5075481;28;20041;-76
2023/11/19 05:30:10;;;;;;;77.10;13.20;;;13.50;99.90;;;13.75;100.00;100651.03;5075050;28;20098;-76
2023/11/19 05:32:39;;;;;;;71.30;13.25;;;13.50;99.90;;;13.75;100.00;100643.06;5075036;28;20086;-76
2023/11/19 05:35:09;;;;;;;75.00;13.93;;;13.50;99.90;;;13.77;100.00;100636.81;5074940;28;20044;-76
2023/11/19 05:37:38;;;;;;;69.47;14.63;;;13.50;99.90;;;13.68;100.00;100622.84;5073901;28;20171;-76
2023/11/19 05:40:14;;;;;;;77.38;15.45;;;13.50;99.90;;;13.71;100.00;100620.09;5074879;28;20074;-76
2023/11/19 05:42:45;;;;;;;72.35;13.77;;;13.50;99.90;;;13.69;100.00;100640.53;5075364;28;20113;-76
2023/11/19 05:45:13;;;;;;;69.60;13.43;;;13.50;99.90;;;13.62;100.00;100628.28;5074742;28;20048;-76
2023/11/19 05:47:43;;;;;;;71.63;13.63;;;13.40;99.90;;;13.72;100.00;100636.06;5090590;28;20132;-76
2023/11/19 05:50:12;;;;;;;75.80;13.02;;;13.40;99.90;;;13.63;100.00;100624.75;5074701;28;20110;-76
2023/11/19 05:52:40;;;;;;;74.22;13.43;;;13.40;99.90;;;13.72;100.00;100643.16;5073481;28;20044;-76
2023/11/19 05:55:10;;;;;;;70.18;12.63;;;13.50;99.90;;;13.73;100.00;100642.22;5073961;28;20055;-76
2023/11/19 05:57:40;;;;;;;74.38;13.05;;;13.50;99.90;;;13.62;100.00;100641.56;5073581;28;20087;-76
2023/11/19 06:00:15;;;;;;;69.95;13.10;;;13.40;99.90;;;13.73;100.00;100650.19;5073512;28;20045;-76
2023/11/19 06:02:44;;;;;;;73.95;12.63;;;13.50;99.90;;;13.84;100.00;100641.09;5074502;28;20036;-76
2023/11/19 06:05:13;;;;;;;63.90;12.63;;;13.50;99.90;;;13.73;100.00;100628.94;5074635;28;20098;-76
2023/11/19 06:07:41;;;;;;;71.10;13.55;;;13.50;99.90;;;13.74;100.00;100647.53;5074294;28;20051;-76
2023/11/19 06:10:11;;;;;;;66.20;13.23;;;13.50;99.90;;;13.73;100.00;100629.81;5074389;28;20060;-76
2023/11/19 06:12:41;;;;;;;76.25;13.77;;;13.50;99.90;;;13.77;100.00;100644.78;5074764;28;20070;-76
2023/11/19 06:15:11;;;;;;;73.55;13.55;;;13.50;99.90;;;13.77;100.00;100644.78;5090071;28;20425;-76
2023/11/19 06:17:40;;;;;;;;;;;13.50;99.90;;;13.73;100.00;100631.59;5074876;28;20036;-76
2023/11/19 06:20:11;;;;;;;85.93;13.55;;;13.50;99.90;;;13.69;100.00;100632.56;5074334;28;20014;-75
2023/11/19 06:22:41;;;;;;;64.63;13.13;;;13.50;99.90;;;13.70;100.00;100627.22;5074397;28;20052;-76
2023/11/19 06:25:12;;;;;;;67.53;12.83;;;13.50;99.90;;;13.72;100.00;100632.50;5073870;28;20090;-76
2023/11/19 06:27:40;;;;;;;67.50;13.27;;;13.40;99.90;;;13.75;100.00;100643.06;5074278;28;20415;-75
2023/11/19 06:30:10;;;;;;;60.13;12.63;;;13.50;99.90;;;13.62;100.00;100638.91;5073898;28;20041;-76
2023/11/19 06:32:40;;;;;;;67.50;12.48;;;13.40;99.90;;;13.47;100.00;100614.41;5072762;28;20040;-76
2023/11/19 06:35:09;;;;;;;70.67;14.80;;;13.40;99.90;;;13.56;100.00;100629.28;5074109;28;20445;-76
2023/11/19 06:37:40;;;;;;;64.40;12.35;;;13.40;99.90;;;13.64;100.00;100653.06;5073641;28;20506;-76
2023/11/19 06:40:10;;;;;;;75.85;13.98;;;13.40;99.90;;;13.63;100.00;100653.97;5074237;28;20072;-76
2023/11/19 06:42:39;;;;;;;72.80;12.55;;;13.40;99.90;;;13.63;100.00;100656.63;5073913;28;20052;-75
2023/11/19 06:45:09;;;;;;;76.03;14.13;;;13.40;99.90;;;13.55;100.00;100651.44;5073543;28;20044;-76
2023/11/19 06:47:39;;;;;;;80.90;14.07;;;13.40;99.90;;;13.52;100.00;100648.88;5074016;28;20498;-75
2023/11/19 06:50:09;;;;;;;73.87;13.30;;;13.40;99.90;;;13.63;100.00;100668.13;5089389;28;20474;-75
2023/11/19 06:52:38;;;;;;;76.55;14.00;;;13.40;99.90;;;13.67;100.00;100671.56;5073721;28;20669;-75
2023/11/19 06:55:08;;;;;;;76.05;13.38;;;13.40;99.90;;;13.69;100.00;100675.09;5073347;28;20045;-76
2023/11/19 06:57:37;;;;;;;62.97;12.80;;;13.40;99.90;;;13.73;100.00;100675.00;5073614;28;20058;-75
2023/11/19 07:00:08;;;;;;;71.28;13.27;;;13.50;99.90;;;13.77;100.00;100671.38;5073238;28;20059;-75
2023/11/19 07:02:36;;;;;;;66.28;12.45;;;13.50;99.90;;;13.82;100.00;100663.31;5089267;28;20080;-75
2023/11/19 07:05:08;;;;;;;83.25;15.07;;;13.50;99.90;;;13.78;100.00;100669.59;5073205;28;20745;-76
2023/11/19 07:07:36;;;;;;;83.05;13.52;;;13.60;99.90;;;13.72;100.00;100664.41;5073426;28;20044;-76
2023/11/19 07:10:09;;;;;;;86.00;15.93;;;13.50;99.90;;;13.80;100.00;100679.28;5073140;28;20098;-76
2023/11/19 07:12:37;;;;;;;80.93;15.10;;;13.50;99.90;;;13.81;100.00;100661.56;5073069;28;20045;-76
2023/11/19 07:15:08;;;;;;;73.18;14.60;;;13.60;99.90;;;13.88;100.00;100671.16;5073022;28;20040;-76
2023/11/19 07:17:37;;;;;;;73.78;13.60;;;13.60;99.90;;;13.84;100.00;100667.66;5071929;28;20091;-76
2023/11/19 07:20:08;;;;;;;72.53;14.10;;;13.60;99.90;;;13.80;100.00;100654.50;5072881;28;20036;-76
2023/11/19 07:22:38;;;;;;;79.63;13.55;;;13.60;99.90;;;13.82;100.00;100663.31;5073110;28;20055;-76
2023/11/19 07:25:08;;;;;;;75.88;13.82;;;13.50;99.90;;;13.83;100.00;100660.63;5071613;28;20040;-76
2023/11/19 07:27:36;;;;;;;86.13;14.17;;;13.60;99.90;;;13.80;100.00;100671.31;5072718;28;20041;-76
2023/11/19 07:30:07;;;;;;;80.35;14.15;;;13.60;99.90;;;13.90;100.00;100659.56;5072597;28;20286;-76
2023/11/19 07:32:36;;;;;;;78.97;14.88;;;13.60;99.90;;;13.86;100.00;100670.31;5072714;28;20564;-76
2023/11/19 07:35:07;;;;;;;64.63;13.30;;;13.60;99.90;;;13.67;100.00;100640.56;5072720;28;20415;-76
2023/11/19 07:37:35;;;;;;;66.13;12.00;;;13.60;99.90;;;13.92;100.00;100678.13;5088181;28;20044;-76
2023/11/19 07:40:05;;;;;;;79.05;14.73;;;13.70;99.90;;;13.92;100.00;100675.47;5073020;28;20071;-76
2023/11/19 07:42:33;;;;;;;61.50;12.75;;;13.70;99.90;;;13.96;100.00;100658.56;5072681;28;20071;-76
2023/11/19 07:45:02;;;;;;;63.97;12.52;;;13.70;99.90;;;13.93;100.00;100669.28;5072891;28;20052;-77
2023/11/19 07:47:30;;;;;;;61.45;11.50;;;13.60;99.90;;;13.87;100.00;100664.09;5072699;28;20486;-76
2023/11/19 07:49:59;;;;;;;59.83;12.40;;;13.60;99.90;;;13.99;100.00;100671.81;5072500;28;20044;-75
2023/11/19 07:52:29;;;;;;;68.50;12.57;;;13.70;99.90;;;13.96;99.63;100663.88;5072757;28;20110;-71
2023/11/19 07:54:57;;;;;;;62.03;11.60;;;13.70;99.90;;;14.02;99.41;100671.72;5072577;28;20080;-70
2023/11/19 07:57:27;;;;;;;57.20;11.93;;;13.80;99.90;;;14.03;99.44;100663.72;5072366;28;20478;-69
2023/11/19 07:59:55;;;;;;;68.15;12.70;;;13.80;99.90;;;14.01;99.79;100675.31;5072454;28;20102;-69
2023/11/19 08:02:24;;;;;;;78.75;13.77;;;13.70;99.90;;;14.06;100.00;100676.06;5072633;28;20037;-69
2023/11/19 08:04:54;;;;;;;72.55;12.85;;;13.70;99.90;;;14.02;100.00;100667.28;5071321;28;20479;-69
2023/11/19 08:07:23;;;;;;;;;;;13.80;99.90;;;14.11;100.00;100666.22;5073040;28;20040;-69
2023/11/19 08:09:52;;;;;;;67.10;13.70;;;13.80;99.90;;;14.06;100.00;100678.72;5072427;28;19970;-70
2023/11/19 08:12:21;;;;;;;67.82;12.23;;;13.80;99.90;;;14.03;100.00;100679.66;5072282;28;20062;-70
2023/11/19 08:14:50;;;;;;;67.45;12.30;;;13.80;99.90;;;14.11;100.00;100669.75;5071259;28;20052;-70
2023/11/19 08:17:19;;;;;;;62.67;12.87;;;13.90;99.90;;;14.10;100.00;100661.81;5071222;28;20049;-71
2023/11/19 08:19:46;;;;;;;71.07;13.05;;;13.90;99.90;;;14.15;100.00;100679.41;5072532;28;20056;-71
2023/11/19 08:22:15;;;;;;;58.80;11.43;;;13.90;99.90;;;14.18;99.54;100662.50;5072047;28;20060;-70
2023/11/19 08:24:43;;;;;;;65.97;13.45;;;13.90;99.90;;;14.30;99.94;100687.06;5071853;28;20055;-70
2023/11/19 08:27:13;;;;;;;63.67;12.38;;;14.00;99.90;;;14.28;99.45;100683.59;5071497;28;20546;-68
2023/11/19 08:29:41;;;;;;;65.00;12.23;;;14.10;99.90;;;14.45;98.85;100668.13;5071961;28;20036;-69
2023/11/19 08:32:10;;;;;;;56.80;12.13;;;14.20;99.90;;;14.66;98.64;100677.38;5087868;28;20041;-69
2023/11/19 08:34:40;;;;;;;64.18;12.32;;;14.30;99.90;;;14.78;97.40;100663.78;5072066;28;20088;-73
2023/11/19 08:37:08;;;;;;;67.78;11.95;;;14.50;99.90;;;14.85;96.45;100689.31;5072042;28;20072;-74
2023/11/19 08:39:37;;;;;;;67.38;12.25;;;14.60;99.90;;;14.82;95.93;100673.44;5072039;28;20041;-75
2023/11/19 08:42:07;;;;;;;63.95;12.57;;;14.60;99.90;;;14.82;96.10;100677.88;5075509;28;20032;-75
2023/11/19 08:44:37;;;;;;;69.53;13.35;;;14.60;99.90;;;14.71;96.00;100648.84;5075985;28;20044;-74
2023/11/19 08:47:06;;;;;;;67.47;15.37;;;14.60;99.90;;;14.86;96.20;100688.44;5076047;28;20044;-75
2023/11/19 08:49:34;;;;;;;65.40;13.45;;;14.60;99.90;;;14.79;96.48;100676.16;5075970;28;20115;-69
2023/11/19 08:52:03;;;;;;;65.40;12.48;;;14.60;99.90;;;14.81;96.25;100669.00;5074618;28;20428;-70
2023/11/19 08:54:32;;;;;;;66.68;14.90;;;14.60;99.90;;;14.82;96.34;100672.56;5075654;28;20041;-74
2023/11/19 08:57:02;;;;;;;64.55;12.38;;;14.50;99.90;;;14.79;96.00;100670.81;5075631;28;20052;-74
2023/11/19 08:59:31;;;;;;;65.05;13.32;;;14.60;99.90;;;14.13;95.75;100544.72;5075511;28;20387;-75
2023/11/19 09:02:01;;;;;;;67.32;13.02;;;14.60;99.90;;;14.76;95.63;100683.34;5075842;28;20049;-75
2023/11/19 09:04:30;;;;;;;70.38;12.07;;;14.50;99.90;;;14.68;95.40;100675.56;5074462;28;20102;-72
2023/11/19 09:06:59;;;;;;;64.20;12.57;;;14.50;99.90;;;14.69;95.47;100668.44;5075547;28;20033;-71
2023/11/19 09:09:27;;;;;;;67.32;12.13;;;14.40;99.90;;;14.69;95.61;100668.44;5075387;28;20052;-71
2023/11/19 09:11:55;;;;;;;59.63;12.88;;;14.40;99.90;;;14.66;95.18;100676.50;5075639;28;20052;-70
2023/11/19 09:14:25;;;;;;;67.28;12.98;;;14.40;99.90;;;14.74;95.04;100672.75;5074360;28;20052;-73
2023/11/19 09:16:54;;;;;;;65.25;12.45;;;14.50;99.90;;;14.73;95.06;100673.63;5075497;28;20384;-74
2023/11/19 09:19:24;;;;;;;58.95;12.02;;;14.50;99.90;;;14.86;95.08;100691.09;5091059;28;20499;-69
2023/11/19 09:21:52;;;;;;;66.20;12.95;;;14.60;99.90;;;15.01;95.21;100684.50;5075103;28;20087;-73
2023/11/19 09:24:21;;;;;;;63.92;11.88;;;14.70;99.90;;;15.20;94.03;100678.66;5074687;28;20045;-73
2023/11/19 09:26:49;;;;;;;55.38;12.02;;;14.90;99.90;;;15.50;92.71;100685.00;5090480;28;20056;-68
2023/11/19 09:29:18;;;;;;;61.42;12.32;;;15.20;99.90;;;15.77;90.87;100680.66;5075463;28;20053;-71
2023/11/19 09:31:46;;;;;;;52.30;10.93;;;15.50;99.90;;;15.82;88.94;100686.72;5074980;28;20048;-74
2023/11/19 09:34:14;;;;;;;58.38;12.02;;;15.70;99.90;;;16.14;87.30;100684.00;5074943;28;20098;-69
2023/11/19 09:36:45;;;;;;;59.92;12.27;;;15.90;99.90;;;16.52;86.11;100690.88;5090728;28;20044;-68
2023/11/19 09:39:14;;;;;;;58.05;11.30;;;16.20;99.90;;;16.55;84.20;100669.41;5074828;28;20051;-75
2023/11/19 09:41:44;;;;;;;50.30;11.77;;;16.30;99.90;;;16.67;83.55;100677.00;5075252;28;20076;-68
2023/11/19 09:44:14;;;;;;;62.78;11.88;;;16.40;99.90;;;16.53;82.56;100672.13;5090360;28;20135;-65
2023/11/19 09:46:43;;;;;;;54.90;11.98;;;16.40;99.90;;;16.25;83.06;100676.56;5073246;28;20051;-75
2023/11/19 09:49:12;;;;;;;58.13;11.05;;;16.10;99.90;;;16.15;83.73;100677.75;5091322;28;20510;-70
2023/11/19 09:51:41;;;;;;;47.97;10.27;;;16.00;99.90;;;16.05;84.03;100686.94;5074336;28;20453;-72
2023/11/19 09:54:12;;;;;;;50.92;11.10;;;15.80;99.90;;;15.98;84.41;100682.72;5074262;28;20044;-68
2023/11/19 09:56:42;;;;;;;57.60;11.50;;;15.70;99.90;;;15.76;84.68;100687.78;5074469;28;20044;-69
2023/11/19 09:59:12;;;;;;;52.95;10.50;;;15.60;99.90;;;15.55;85.04;100682.19;5074846;28;20055;-72
2023/11/19 10:01:41;;;;;;;53.53;10.85;;;15.40;99.90;;;15.60;85.74;100683.78;5074896;28;20048;-76
2023/11/19 10:04:10;;;;;;;52.03;10.85;;;15.30;99.90;;;15.86;85.99;100681.28;5074863;28;20123;-73